PWSweather.com
Personal Weather Stations
Station Observations
GEELONGWX1
Bell Post Hill, GeelongAU

Bell Post HillGeelongAU

Lat: -38.101, Lon: 144.326

Elevation: 204

Station Type: Davis Vantage Pro2

http://www.geelongweather.com

Latest ConditionsUpdated 9:20:03 AM GMT+10:10 Tuesday, Sep 2, 2014
Currently Today's Max Today's Min Today's Average
Temperature 50.8°F10.4°C 51.0°F10.6°C 43.9°F6.6°C 45.5°F7.5°C
Dew Point 44.5°F6.9°C 44.7°F7.1°C 37.3°F2.9°C 39.0°F3.9°C
Winds 6.9 mph NW11.1 kmh NW 7.1 mph NW11.4 kmh NW - 2.9 mph 4.7 kmh
Wind Gusts 8.0 mph12.9 kmh 11.0 mph17.7 kmh - -
Humidity 79% 79% 76% 78%
Pressure 30.17 in1021.7 mb 30.17 in1021.7 mb 30.01 in1016.3 mb -
Precipitation - 0.11 in2.8 mm - -
Hour Temp Dew Point Humidity Winds Wind Gusts Pressure Precip Precip Rate Daily Precip Total
09:20 AM 50.8°F10.4°C 44.5°F6.9°C 79% 6.9 mph NW11.1 kmh NW 8.0 mph12.9 kmh 30.17 in1021.7 mb 0.00 in0.0 mm 0.00 in/hr0.0 mm/hr 0.11 in2.8 mm
09:10 AM 51.0°F10.6°C 44.7°F7.1°C 79% 3.2 mph NW5.1 kmh NW 5.0 mph8.0 kmh 30.17 in1021.7 mb 0.00 in0.0 mm 0.00 in/hr0.0 mm/hr 0.11 in2.8 mm
09:00 AM 48.5°F9.2°C 42.3°F5.7°C 79% 5.8 mph NW9.3 kmh NW 9.0 mph14.5 kmh 30.17 in1021.7 mb 0.00 in0.0 mm 0.00 in/hr0.0 mm/hr 0.11 in2.8 mm
08:50 AM 48.7°F9.3°C 42.1°F5.6°C 78% 6.9 mph NW11.1 kmh NW 10.0 mph16.1 kmh 30.16 in1021.3 mb 0.00 in0.0 mm 0.00 in/hr0.0 mm/hr 0.11 in2.8 mm
08:40 AM 47.5°F8.6°C 41.3°F5.2°C 79% 2.7 mph NW4.3 kmh NW 8.0 mph12.9 kmh 30.16 in1021.3 mb 0.00 in0.0 mm 0.00 in/hr0.0 mm/hr 0.11 in2.8 mm
08:30 AM 47.4°F8.6°C 40.9°F4.9°C 78% 7.1 mph NW11.4 kmh NW 11.0 mph17.7 kmh 30.16 in1021.3 mb 0.00 in0.0 mm 0.00 in/hr0.0 mm/hr 0.11 in2.8 mm
08:20 AM 46.5°F8.1°C 40.0°F4.4°C 78% 5.5 mph WNW8.9 kmh WNW 9.0 mph14.5 kmh 30.15 in1021.0 mb 0.00 in0.0 mm 0.00 in/hr0.0 mm/hr 0.11 in2.8 mm
08:10 AM 47.3°F8.5°C 40.4°F4.7°C 77% 5.9 mph NW9.5 kmh NW 9.0 mph14.5 kmh 30.15 in1021.0 mb 0.00 in0.0 mm 0.00 in/hr0.0 mm/hr 0.11 in2.8 mm
08:00 AM 47.1°F8.4°C 39.9°F4.4°C 76% Calm Calm 4.0 mph6.4 kmh 30.14 in1020.7 mb 0.01 in0.3 mm 0.01 in/hr0.3 mm/hr 0.11 in2.8 mm
07:50 AM 45.7°F7.6°C 38.9°F3.8°C 77% 4.1 mph WNW6.6 kmh WNW 6.0 mph9.7 kmh 30.14 in1020.7 mb 0.01 in0.3 mm 0.06 in/hr1.5 mm/hr 0.11 in2.8 mm
07:40 AM 44.9°F7.2°C 38.1°F3.4°C 77% 1.1 mph NW1.8 kmh NW 2.0 mph3.2 kmh 30.13 in1020.3 mb 0.00 in0.0 mm 0.00 in/hr0.0 mm/hr 0.10 in2.5 mm
07:30 AM 44.8°F7.1°C 38.0°F3.3°C 77% Calm Calm -- 30.13 in1020.3 mb 0.00 in0.0 mm 0.00 in/hr0.0 mm/hr 0.10 in2.5 mm
07:20 AM 44.4°F6.9°C 37.6°F3.1°C 77% 3.0 mph NW4.8 kmh NW 6.0 mph9.7 kmh 30.13 in1020.3 mb 0.01 in0.3 mm 0.06 in/hr1.5 mm/hr 0.10 in2.5 mm
07:10 AM 44.2°F6.8°C 37.4°F3.0°C 77% 4.3 mph NW6.9 kmh NW 5.0 mph8.0 kmh 30.12 in1020.0 mb 0.00 in0.0 mm 0.00 in/hr0.0 mm/hr 0.09 in2.3 mm
07:00 AM 44.1°F6.7°C 37.3°F2.9°C 77% 4.0 mph NW6.4 kmh NW 6.0 mph9.7 kmh 30.12 in1020.0 mb 0.00 in0.0 mm 0.00 in/hr0.0 mm/hr 0.09 in2.3 mm
06:50 AM 44.0°F6.7°C 37.6°F3.1°C 78% 2.3 mph NW3.7 kmh NW 4.0 mph6.4 kmh 30.11 in1019.6 mb 0.00 in0.0 mm 0.00 in/hr0.0 mm/hr 0.09 in2.3 mm
06:40 AM 43.9°F6.6°C 37.5°F3.1°C 78% 3.4 mph NW5.5 kmh NW 5.0 mph8.0 kmh 30.11 in1019.6 mb 0.00 in0.0 mm 0.00 in/hr0.0 mm/hr 0.09 in2.3 mm
06:30 AM 43.9°F6.6°C 37.5°F3.1°C 78% 3.5 mph NW5.6 kmh NW 5.0 mph8.0 kmh 30.11 in1019.6 mb 0.00 in0.0 mm 0.00 in/hr0.0 mm/hr 0.09 in2.3 mm
06:20 AM 44.0°F6.7°C 37.6°F3.1°C 78% 2.7 mph WNW4.3 kmh WNW 5.0 mph8.0 kmh 30.11 in1019.6 mb 0.00 in0.0 mm 0.00 in/hr0.0 mm/hr 0.09 in2.3 mm
06:10 AM 44.0°F6.7°C 37.6°F3.1°C 78% 3.0 mph NW4.8 kmh NW 6.0 mph9.7 kmh 30.10 in1019.3 mb 0.00 in0.0 mm 0.00 in/hr0.0 mm/hr 0.09 in2.3 mm
06:00 AM 44.2°F6.8°C 37.8°F3.2°C 78% 4.3 mph NW6.9 kmh NW 6.0 mph9.7 kmh 30.09 in1019.0 mb 0.00 in0.0 mm 0.00 in/hr0.0 mm/hr 0.09 in2.3 mm
05:50 AM 44.4°F6.9°C 38.0°F3.3°C 78% 3.2 mph NW5.1 kmh NW 6.0 mph9.7 kmh 30.09 in1019.0 mb 0.00 in0.0 mm 0.00 in/hr0.0 mm/hr 0.09 in2.3 mm
05:40 AM 44.4°F6.9°C 37.6°F3.1°C 77% 1.5 mph N2.4 kmh N 4.0 mph6.4 kmh 30.09 in1019.0 mb 0.00 in0.0 mm 0.00 in/hr0.0 mm/hr 0.09 in2.3 mm
05:30 AM 44.2°F6.8°C 37.8°F3.2°C 78% 5.1 mph NW8.2 kmh NW 9.0 mph14.5 kmh 30.08 in1018.6 mb 0.00 in0.0 mm 0.00 in/hr0.0 mm/hr 0.09 in2.3 mm
05:20 AM 44.1°F6.7°C 37.7°F3.2°C 78% Calm Calm 6.0 mph9.7 kmh 30.07 in1018.3 mb 0.00 in0.0 mm 0.00 in/hr0.0 mm/hr 0.09 in2.3 mm
05:10 AM 44.1°F6.7°C 37.7°F3.2°C 78% 2.2 mph N3.5 kmh N 3.0 mph4.8 kmh 30.07 in1018.3 mb 0.00 in0.0 mm 0.00 in/hr0.0 mm/hr 0.09 in2.3 mm
05:00 AM 44.2°F6.8°C 37.8°F3.2°C 78% 2.6 mph NW4.2 kmh NW 5.0 mph8.0 kmh 30.07 in1018.3 mb 0.00 in0.0 mm 0.00 in/hr0.0 mm/hr 0.09 in2.3 mm
04:50 AM 44.4°F6.9°C 38.0°F3.3°C 78% 2.3 mph NNW3.7 kmh NNW 5.0 mph8.0 kmh 30.07 in1018.3 mb 0.00 in0.0 mm 0.00 in/hr0.0 mm/hr 0.09 in2.3 mm
04:40 AM 44.5°F6.9°C 38.1°F3.4°C 78% 2.6 mph NNW4.2 kmh NNW 5.0 mph8.0 kmh 30.06 in1017.9 mb 0.01 in0.3 mm 0.06 in/hr1.5 mm/hr 0.09 in2.3 mm
04:30 AM 44.4°F6.9°C 38.0°F3.3°C 78% 3.0 mph N4.8 kmh N 6.0 mph9.7 kmh 30.07 in1018.3 mb 0.03 in0.8 mm 0.18 in/hr4.6 mm/hr 0.09 in2.3 mm
04:20 AM 44.4°F6.9°C 38.0°F3.3°C 78% 4.3 mph NW6.9 kmh NW 6.0 mph9.7 kmh 30.06 in1017.9 mb 0.00 in0.0 mm 0.00 in/hr0.0 mm/hr 0.06 in1.5 mm
04:10 AM 44.5°F6.9°C 38.1°F3.4°C 78% 3.2 mph NW5.1 kmh NW 4.0 mph6.4 kmh 30.05 in1017.6 mb 0.00 in0.0 mm 0.00 in/hr0.0 mm/hr 0.06 in1.5 mm
04:00 AM 44.8°F7.1°C 38.4°F3.6°C 78% 2.6 mph NW4.2 kmh NW 4.0 mph6.4 kmh 30.05 in1017.6 mb 0.00 in0.0 mm 0.00 in/hr0.0 mm/hr 0.06 in1.5 mm
03:50 AM 44.9°F7.2°C 38.5°F3.6°C 78% 3.0 mph NW4.8 kmh NW 4.0 mph6.4 kmh 30.05 in1017.6 mb 0.00 in0.0 mm 0.00 in/hr0.0 mm/hr 0.06 in1.5 mm
03:40 AM 44.7°F7.1°C 38.3°F3.5°C 78% 3.5 mph NW5.6 kmh NW 5.0 mph8.0 kmh 30.05 in1017.6 mb 0.04 in1.0 mm 0.24 in/hr6.1 mm/hr 0.06 in1.5 mm
03:30 AM 44.7°F7.1°C 38.3°F3.5°C 78% 1.0 mph NW1.6 kmh NW 6.0 mph9.7 kmh 30.04 in1017.3 mb 0.00 in0.0 mm 0.00 in/hr0.0 mm/hr 0.02 in0.5 mm
03:20 AM 44.9°F7.2°C 38.5°F3.6°C 78% 1.8 mph N2.9 kmh N 3.0 mph4.8 kmh 30.04 in1017.3 mb 0.00 in0.0 mm 0.00 in/hr0.0 mm/hr 0.02 in0.5 mm
03:10 AM 45.1°F7.3°C 38.6°F3.7°C 78% 3.2 mph N5.1 kmh N 5.0 mph8.0 kmh 30.04 in1017.3 mb 0.00 in0.0 mm 0.00 in/hr0.0 mm/hr 0.02 in0.5 mm
03:00 AM 45.1°F7.3°C 38.6°F3.7°C 78% 0.3 mph NNW0.5 kmh NNW 5.0 mph8.0 kmh 30.04 in1017.3 mb 0.00 in0.0 mm 0.00 in/hr0.0 mm/hr 0.02 in0.5 mm
02:50 AM 45.0°F7.2°C 38.6°F3.7°C 78% 3.5 mph NNW5.6 kmh NNW 6.0 mph9.7 kmh 30.03 in1016.9 mb 0.01 in0.3 mm 0.06 in/hr1.5 mm/hr 0.02 in0.5 mm
02:40 AM 44.9°F7.2°C 38.5°F3.6°C 78% 0.2 mph NNW0.3 kmh NNW -- 30.04 in1017.3 mb 0.00 in0.0 mm 0.00 in/hr0.0 mm/hr 0.01 in0.3 mm
02:30 AM 45.0°F7.2°C 38.6°F3.7°C 78% 1.2 mph NW1.9 kmh NW 7.0 mph11.3 kmh 30.04 in1017.3 mb 0.00 in0.0 mm 0.00 in/hr0.0 mm/hr 0.01 in0.3 mm
02:20 AM 45.0°F7.2°C 38.6°F3.7°C 78% 2.8 mph NW4.5 kmh NW 5.0 mph8.0 kmh 30.03 in1016.9 mb 0.01 in0.3 mm 0.06 in/hr1.5 mm/hr 0.01 in0.3 mm
02:10 AM 45.2°F7.3°C 38.7°F3.7°C 78% 3.3 mph NW5.3 kmh NW 5.0 mph8.0 kmh 30.03 in1016.9 mb 0.00 in0.0 mm 0.00 in/hr0.0 mm/hr 0.00 in0.0 mm
02:00 AM 45.5°F7.5°C 39.0°F3.9°C 78% 2.6 mph NNW4.2 kmh NNW 5.0 mph8.0 kmh 30.02 in1016.6 mb 0.00 in0.0 mm 0.00 in/hr0.0 mm/hr 0.00 in0.0 mm
01:50 AM 45.9°F7.7°C 39.4°F4.1°C 78% Calm Calm 1.0 mph1.6 kmh 30.02 in1016.6 mb 0.00 in0.0 mm 0.00 in/hr0.0 mm/hr 0.00 in0.0 mm
01:40 AM 46.2°F7.9°C 39.7°F4.3°C 78% 3.3 mph NNW5.3 kmh NNW 6.0 mph9.7 kmh 30.02 in1016.6 mb 0.00 in0.0 mm 0.00 in/hr0.0 mm/hr 0.00 in0.0 mm
01:30 AM 46.3°F7.9°C 39.8°F4.3°C 78% 3.3 mph NW5.3 kmh NW 6.0 mph9.7 kmh 30.02 in1016.6 mb 0.00 in0.0 mm 0.00 in/hr0.0 mm/hr 0.00 in0.0 mm
01:20 AM 46.2°F7.9°C 39.8°F4.3°C 78% 5.3 mph N8.5 kmh N 8.0 mph12.9 kmh 30.02 in1016.6 mb 0.00 in0.0 mm 0.00 in/hr0.0 mm/hr 0.00 in0.0 mm
01:10 AM 46.2°F7.9°C 39.7°F4.3°C 78% 4.3 mph N6.9 kmh N 8.0 mph12.9 kmh 30.02 in1016.6 mb 0.00 in0.0 mm 0.00 in/hr0.0 mm/hr 0.00 in0.0 mm
01:00 AM 46.0°F7.8°C 39.5°F4.2°C 78% 3.2 mph NNW5.1 kmh NNW 7.0 mph11.3 kmh 30.02 in1016.6 mb 0.00 in0.0 mm 0.00 in/hr0.0 mm/hr 0.00 in0.0 mm
12:50 AM 45.7°F7.6°C 39.2°F4.0°C 78% 2.9 mph NW4.7 kmh NW 6.0 mph9.7 kmh 30.02 in1016.6 mb 0.00 in0.0 mm 0.00 in/hr0.0 mm/hr 0.00 in0.0 mm
12:40 AM 45.7°F7.6°C 39.2°F4.0°C 78% 2.6 mph NNW4.2 kmh NNW 5.0 mph8.0 kmh 30.02 in1016.6 mb 0.00 in0.0 mm 0.00 in/hr0.0 mm/hr 0.00 in0.0 mm
12:30 AM 45.8°F7.7°C 39.7°F4.3°C 79% Calm Calm -- 30.02 in1016.6 mb 0.00 in0.0 mm 0.00 in/hr0.0 mm/hr 0.00 in0.0 mm
12:20 AM 45.9°F7.7°C 39.8°F4.3°C 79% 0.3 mph NW0.5 kmh NW -- 30.01 in1016.3 mb 0.00 in0.0 mm 0.00 in/hr0.0 mm/hr 0.00 in0.0 mm
12:10 AM 45.9°F7.7°C 39.8°F4.3°C 79% Calm Calm -- 30.01 in1016.3 mb 0.00 in0.0 mm 0.00 in/hr0.0 mm/hr 0.00 in0.0 mm
12:00 AM 45.9°F7.7°C 39.8°F4.3°C 79% Calm Calm -- 30.01 in1016.3 mb 0.00 in0.0 mm 0.00 in/hr0.0 mm/hr 0.00 in0.0 mm